Joslin Field Magic Valley Regional Airport
KTWF : now visible

Airfield :











YOU CAN JOIN US ON...

 
LOGIN :

Register | Disclaimer

   EN    FR    IT 

 









Legend :    VFR   Marginal VFR   IFR   Intensive IFR   Very Intensive IFR
Visi :
Ceiling :
>= 8 km
>= 3000ft
5 to 8 km
1000 to 3000 ft
1500m to 5 km
500 to 1000 ft
800 to 1500m
200 to 500 ft
< 800m
< 200 ft
Symbols :   Thunderstorms  Fog  Heavy snow  Heavy precipitations  Wind > 20 kt






- Airport Elevation : 4154 ft
- IATA code : TWF


KTWF - Joslin Field Magic Valley Regional

CURRENT METAR :
  • 242353Z 29006KT 10SM CLR 25/M01 A3025 RMK AO2 SLP203 T02501006 10256 20200 58009

EXPIRED METARs :
  • 242253Z 33006KT 10SM CLR 25/00 A3027 RMK AO2 SLP207 T02500000

TAF KTWF
Valid from the 25 at 00:00 until the 26 at 00:00 UTC


242320Z 2500/2524 32007KT P6SM SKC
FM250300 20008KT P6SM SKC
FM251600 01006KT P6SM SKC
KZLC FIR / North America



MET'MAP, your aeronautical weather chart ! - Copyright ORBIFLY December 2007 - Disclaimer

ORBIFLY MET'MAP TEAM :

Programming & Development : Alexandra Zaïnal
Original concept : Baudouin d'Aumeries
Technical & hardware support : Manuel Goepfert
Assistance : Marc-Olivier Méhu




SOURCES & CREDITS :

   NOAA       Earth
Advisory